Grider Field Pine Bluff US
ICAO: KPBF
IATA: PBF
Category: Medium
Scheduled Services: No

Elevation: 206 ft
TransAlt. 18000 ft.

Airport Communications:
LITTLE ROCK APP/DEP:119.85
ASOS:120.775
LITTLE ROCK CLNC DEL:119.85
JONESBORO RDO:122.6
CTAF/UNICOM:123

KPBF Zoom In..

If you have problems with the map follow the link
https://www.worldairports.se/pages/airport.php?
ICAO=KPBF

Runways:

(A) RW 18 length 5998 ft width 150 ft
ILS 111.70 / hdg 178

(B) RW 36 length 5998 ft width 150 ft
---- / hdg 358

Location; KPBF
Day. 11 / Time. 12.53 Zulu
* Altimeter: 30.55
* Temperature: -03° c. -26.6°f.
* Wind from: 000° Speed 00 kn.
Dewpoint: -05° c.
Visibility: 10 Statute Miles.
Clouds: Clear (automated report).

KPBF 111253Z AUTO 00000KT 10SM CLR M03/M05 A3055 RMK AO2 SLP345 I1000 T10331050


Wind - Calm.

 
 
jpsmedia worldairports.se 2019   terms of use